This is the latest recevied weather packets stored in our database for station/object K4IR. If no packets are shown the sender has not sent any weather packets the latest 1 day(s).
| Time | Temp. | Humidity | Pressure | Rain* | Wind** | Luminosity | Snow |
|---|---|---|---|---|---|---|---|
| 1836274377 | 18.33° C | 97% | 1017.7 hPa | 0 mm | 0 m/s | 0 W/m² | - |
| 1836274230 | 18.33° C | 97% | 1017.7 hPa | 0 mm | 0 m/s | 0 W/m² | - |
| 1778050967 | 11.67° C | 98% | 1015.4 hPa | 0 mm | 0 m/s | 0 W/m² | - |
| 1778050362 | 11.11° C | 98% | 1015.5 hPa | 0 mm | 0 m/s | 0 W/m² | - |
| 1778049759 | 11.67° C | 98% | 1016 hPa | 0 mm | 0 m/s | 0 W/m² | - |
| 1778049155 | 11.67° C | 98% | 1016.3 hPa | 0 mm | 0 m/s | 0 W/m² | - |
| 1778048550 | 11.67° C | 98% | 1016.2 hPa | 0 mm | 0 m/s | 0 W/m² | - |
| 1778047949 | 11.67° C | 98% | 1016.4 hPa | 0 mm | 0 m/s | 0 W/m² | - |
| 1778047344 | 11.67° C | 98% | 1016.8 hPa | 0 mm | 0 m/s | 0 W/m² | - |
| 1778046744 | 11.67° C | 98% | 1016.3 hPa | 0 mm | 0 m/s | 0 W/m² | - |
| 1778046143 | 11.67° C | 98% | 1016.4 hPa | 0 mm | 0 m/s | 0 W/m² | - |
| 1778045539 | 11.67° C | 98% | 1016.3 hPa | 0 mm | 0 m/s | 0 W/m² | - |
| 1778044935 | 12.22° C | 98% | 1016.4 hPa | 0 mm | 0 m/s | 0 W/m² | - |
| 1778044334 | 12.22° C | 97% | 1016.7 hPa | 0 mm | 0 m/s | 0 W/m² | - |
| 1778043729 | 12.22° C | 97% | 1016.8 hPa | 0 mm | 0 m/s | 0 W/m² | - |
| 1778043128 | 12.78° C | 97% | 1016.7 hPa | 0 mm | 0 m/s | 0 W/m² | - |
| 1778042529 | 12.78° C | 97% | 1017 hPa | 0 mm | 0 m/s | 0 W/m² | - |
| 1778041924 | 12.78° C | 97% | 1017.3 hPa | 0 mm | 0 m/s | 0 W/m² | - |
| 1778041320 | 12.78° C | 97% | 1017.1 hPa | 0 mm | 0 m/s | 0 W/m² | - |
| 1778040715 | 12.78° C | 97% | 1017.3 hPa | 0 mm | 0 m/s | 0 W/m² | - |
| 1778040115 | 12.78° C | 96% | 1017.2 hPa | 0 mm | 0 m/s | 0 W/m² | - |
| 1778039515 | 12.78° C | 96% | 1017.5 hPa | 0 mm | 0 m/s | 0 W/m² | - |
| 1778038914 | 12.78° C | 96% | 1017.5 hPa | 0 mm | 0 m/s | 0 W/m² | - |
| 1778038314 | 13.33° C | 96% | 1017.7 hPa | 0 mm | 0 m/s | 0 W/m² | - |
| 1778037714 | 13.33° C | 96% | 1017.3 hPa | 0 mm | 0 m/s | 0 W/m² | - |
* Rain latest hour (hover to see other rain measurements)
** Current wind speed in m/s (hover to see current wind gust speed)